Time;durP1;ratioP1;P1;durP2;ratioP2;P2;SDS_P1;SDS_P2;PMS_P1;PMS_P2;Temp;Humidity;BMP_temperature;BMP_pressure;BME280_temperature;BME280_humidity;BME280_pressure;Samples;Min_cycle;Max_cycle;Signal;HPM_P1;HPM_P2
2024/04/01 00:01:05;;;;;;;16.47;3.60;;;;;;;;;;6017124;23;20616;-82
2024/04/01 00:03:31;;;;;;;16.57;3.30;;;;;;;;;;6041021;23;20169;-81
2024/04/01 00:05:58;;;;;;;20.70;3.77;;;;;;;;;;6017101;23;20637;-82
2024/04/01 00:08:25;;;;;;;17.20;3.37;;;;;;;;;;5993796;23;20169;-82
2024/04/01 00:10:51;;;;;;;17.53;3.60;;;;;;;;;;6040717;23;20173;-82
2024/04/01 00:13:29;;;;;;;16.43;3.67;;;;;;;;;;6040701;23;20599;-82
2024/04/01 00:15:55;;;;;;;16.70;3.77;;;;;;;;;;6017148;23;20170;-82
2024/04/01 00:18:26;;;;;;;16.40;3.70;;;;;;;;;;6040571;23;20205;-82
2024/04/01 00:21:01;;;;;;;21.73;3.70;;;;;;;;;;5993772;23;20162;-82
2024/04/01 00:23:28;;;;;;;22.53;4.13;;;;;;;;;;6017475;23;20196;-82
2024/04/01 00:25:54;;;;;;;20.70;4.20;;;;;;;;;;6017278;23;20165;-81
2024/04/01 00:28:22;;;;;;;19.10;4.33;;;;;;;;;;6016816;23;20173;-82
2024/04/01 00:30:48;;;;;;;20.70;4.80;;;;;;;;;;6040574;23;20632;-82
2024/04/01 00:33:15;;;;;;;20.73;4.43;;;;;;;;;;6040706;23;20244;-82
2024/04/01 00:35:42;;;;;;;21.33;3.93;;;;;;;;;;6054284;23;20213;-81
2024/04/01 00:38:09;;;;;;;26.57;4.63;;;;;;;;;;6064379;23;20165;-82
2024/04/01 00:40:35;;;;;;;20.27;4.50;;;;;;;;;;6064475;23;20201;-82
2024/04/01 00:43:06;;;;;;;23.57;4.77;;;;;;;;;;6040818;23;20196;-82
2024/04/01 00:45:36;;;;;;;25.10;5.53;;;;;;;;;;6064256;23;20192;-82
2024/04/01 00:48:07;;;;;;;24.57;5.87;;;;;;;;;;6064690;23;20616;-82
2024/04/01 00:50:34;;;;;;;19.57;4.93;;;;;;;;;;6041247;23;20169;-82
2024/04/01 00:53:01;;;;;;;21.70;4.23;;;;;;;;;;6064767;23;20169;-82
2024/04/01 00:55:28;;;;;;;25.60;4.60;;;;;;;;;;6064891;23;20162;-82
2024/04/01 00:57:56;;;;;;;24.10;5.00;;;;;;;;;;6065083;23;20300;-82
2024/04/01 01:00:23;;;;;;;29.17;5.90;;;;;;;;;;6063768;23;20181;-82
2024/04/01 01:02:49;;;;;;;26.37;5.20;;;;;;;;;;6063982;23;20641;-82
2024/04/01 01:05:16;;;;;;;28.57;5.23;;;;;;;;;;6040563;23;20263;-82
2024/04/01 01:07:43;;;;;;;26.47;5.73;;;;;;;;;;6016972;23;20185;-82
2024/04/01 01:10:10;;;;;;;24.93;5.33;;;;;;;;;;6041142;23;20576;-82
2024/04/01 01:12:39;;;;;;;27.37;5.63;;;;;;;;;;6064289;23;20161;-81
2024/04/01 01:15:11;;;;;;;25.83;5.37;;;;;;;;;;6064849;23;20169;-82
2024/04/01 01:17:40;;;;;;;30.30;5.00;;;;;;;;;;6040500;23;20170;-82
2024/04/01 01:20:11;;;;;;;34.10;5.90;;;;;;;;;;6064443;23;20609;-82
2024/04/01 01:22:39;;;;;;;25.10;5.27;;;;;;;;;;6064288;23;20200;-83
2024/04/01 01:25:07;;;;;;;27.30;5.63;;;;;;;;;;6065025;23;20177;-81
2024/04/01 01:27:34;;;;;;;26.53;6.00;;;;;;;;;;6040387;23;20173;-82
2024/04/01 01:30:00;;;;;;;29.57;5.73;;;;;;;;;;6064519;23;20256;-82
2024/04/01 01:32:27;;;;;;;26.57;5.53;;;;;;;;;;6063941;23;20236;-83
2024/04/01 01:34:54;;;;;;;31.23;6.10;;;;;;;;;;6040653;23;20215;-81
2024/04/01 01:37:20;;;;;;;31.23;5.33;;;;;;;;;;6064588;23;20169;-82
2024/04/01 01:39:48;;;;;;;26.17;6.10;;;;;;;;;;6042205;23;20184;-81
2024/04/01 01:42:15;;;;;;;30.57;6.33;;;;;;;;;;6066189;23;20228;-82
2024/04/01 01:44:41;;;;;;;31.63;6.23;;;;;;;;;;6066449;23;20200;-82
2024/04/01 01:47:10;;;;;;;37.43;6.17;;;;;;;;;;6066030;23;20173;-82
2024/04/01 01:49:39;;;;;;;31.70;5.97;;;;;;;;;;6042826;23;20176;-82
2024/04/01 01:52:09;;;;;;;26.80;5.40;;;;;;;;;;6065955;23;20193;-82
2024/04/01 01:54:37;;;;;;;29.77;5.97;;;;;;;;;;6064656;23;20173;-81
2024/04/01 01:57:03;;;;;;;37.80;7.27;;;;;;;;;;6066058;23;20169;-81
2024/04/01 01:59:33;;;;;;;32.20;5.33;;;;;;;;;;6066020;23;20409;-81
2024/04/01 02:01:59;;;;;;;35.93;6.70;;;;;;;;;;6018525;23;20310;-81
2024/04/01 02:04:29;;;;;;;30.03;7.03;;;;;;;;;;6042392;23;20180;-82
2024/04/01 02:06:56;;;;;;;30.77;7.03;;;;;;;;;;6042505;23;20173;-81
2024/04/01 02:09:22;;;;;;;35.43;6.70;;;;;;;;;;6042695;23;20181;-82
2024/04/01 02:11:50;;;;;;;40.60;7.20;;;;;;;;;;6018690;23;20617;-81
2024/04/01 02:14:17;;;;;;;33.03;6.43;;;;;;;;;;6042439;23;20173;-81
2024/04/01 02:16:43;;;;;;;35.53;6.40;;;;;;;;;;6066054;23;20207;-81
2024/04/01 02:19:10;;;;;;;34.90;7.00;;;;;;;;;;6042594;23;20244;-81
2024/04/01 02:21:57;;;;;;;36.33;6.50;;;;;;;;;;6041977;23;20672;-81
2024/04/01 02:24:27;;;;;;;31.83;6.43;;;;;;;;;;6066161;23;20165;-81
2024/04/01 02:26:54;;;;;;;32.93;6.33;;;;;;;;;;6065527;23;20181;-81
2024/04/01 02:29:23;;;;;;;38.17;7.27;;;;;;;;;;6041710;23;20173;-81
2024/04/01 02:31:49;;;;;;;41.10;6.30;;;;;;;;;;6065494;23;20173;-81
2024/04/01 02:34:17;;;;;;;34.33;7.37;;;;;;;;;;6043313;23;20165;-81
2024/04/01 02:36:43;;;;;;;37.13;6.50;;;;;;;;;;6046561;23;20273;-81
2024/04/01 02:39:16;;;;;;;29.27;6.30;;;;;;;;;;6070869;23;20847;-82
2024/04/01 02:41:47;;;;;;;34.50;6.80;;;;;;;;;;6046161;23;20714;-81
2024/04/01 02:44:14;;;;;;;35.80;7.00;;;;;;;;;;6046477;23;20200;-81
2024/04/01 02:46:41;;;;;;;40.13;6.20;;;;;;;;;;6046519;23;20223;-81
2024/04/01 02:49:09;;;;;;;33.30;6.37;;;;;;;;;;6046745;23;20168;-81
2024/04/01 02:51:35;;;;;;;38.73;7.10;;;;;;;;;;6046496;23;20215;-82
2024/04/01 02:54:01;;;;;;;37.73;6.80;;;;;;;;;;6022970;23;20611;-81
2024/04/01 02:56:27;;;;;;;31.70;6.53;;;;;;;;;;6070433;23;20177;-81
2024/04/01 02:58:58;;;;;;;40.13;7.63;;;;;;;;;;6023321;23;20200;-82
2024/04/01 03:01:25;;;;;;;34.73;6.90;;;;;;;;;;6070411;23;20168;-81
2024/04/01 03:03:58;;;;;;;36.57;6.33;;;;;;;;;;6046327;23;20248;-81
2024/04/01 03:06:25;;;;;;;37.27;7.37;;;;;;;;;;6046604;23;20239;-81
2024/04/01 03:08:51;;;;;;;28.60;6.37;;;;;;;;;;6023290;23;20180;-82
2024/04/01 03:11:18;;;;;;;32.00;6.73;;;;;;;;;;6046636;23;20619;-81
2024/04/01 03:13:44;;;;;;;36.70;7.10;;;;;;;;;;6046595;23;20195;-81
2024/04/01 03:16:10;;;;;;;39.67;7.20;;;;;;;;;;6046608;23;20179;-81
2024/04/01 03:18:39;;;;;;;30.93;6.50;;;;;;;;;;6046896;23;20164;-81
2024/04/01 03:21:09;;;;;;;41.80;7.93;;;;;;;;;;6022743;23;20616;-81
2024/04/01 03:23:38;;;;;;;30.40;6.20;;;;;;;;;;6070102;23;20188;-82
2024/04/01 03:26:07;;;;;;;33.00;6.87;;;;;;;;;;6046558;23;20219;-81
2024/04/01 03:28:33;;;;;;;34.50;7.47;;;;;;;;;;6069902;23;20173;-81
2024/04/01 03:31:03;;;;;;;33.37;7.77;;;;;;;;;;6045831;23;20165;-81
2024/04/01 03:33:29;;;;;;;30.03;6.57;;;;;;;;;;6046051;23;20173;-81
2024/04/01 03:35:55;;;;;;;36.13;6.77;;;;;;;;;;6064690;23;20224;-82
2024/04/01 03:38:22;;;;;;;32.07;6.93;;;;;;;;;;6065448;23;20173;-81
2024/04/01 03:40:52;;;;;;;35.20;7.13;;;;;;;;;;6040669;23;20252;-81
2024/04/01 03:43:19;;;;;;;35.87;7.67;;;;;;;;;;6017555;23;20189;-81
2024/04/01 03:45:45;;;;;;;32.50;7.10;;;;;;;;;;6064819;23;20185;-81
2024/04/01 03:48:11;;;;;;;31.00;6.80;;;;;;;;;;6017705;23;20173;-81
2024/04/01 03:50:43;;;;;;;34.27;7.03;;;;;;;;;;6041103;23;20165;-81
2024/04/01 03:53:10;;;;;;;35.97;7.60;;;;;;;;;;6064781;23;20161;-81
2024/04/01 03:55:37;;;;;;;34.97;7.20;;;;;;;;;;6017540;23;20176;-81
2024/04/01 03:58:07;;;;;;;32.77;7.40;;;;;;;;;;6064695;23;20177;-81
2024/04/01 04:00:34;;;;;;;37.67;7.17;;;;;;;;;;6017470;23;20193;-81
2024/04/01 04:03:01;;;;;;;39.27;7.07;;;;;;;;;;6064528;23;20192;-80
2024/04/01 04:05:27;;;;;;;39.60;7.30;;;;;;;;;;6017664;23;20545;-82
2024/04/01 04:07:57;;;;;;;33.63;6.47;;;;;;;;;;6040696;23;20177;-81
2024/04/01 04:10:23;;;;;;;37.03;7.20;;;;;;;;;;6040775;23;20177;-81
2024/04/01 04:12:50;;;;;;;37.57;7.20;;;;;;;;;;6064633;23;20189;-81
2024/04/01 04:15:18;;;;;;;38.57;7.07;;;;;;;;;;6064784;23;20161;-81
2024/04/01 04:17:44;;;;;;;34.37;7.47;;;;;;;;;;6064284;23;20244;-81
2024/04/01 04:20:11;;;;;;;33.90;7.43;;;;;;;;;;6017155;23;20173;-81
2024/04/01 04:22:39;;;;;;;36.67;7.53;;;;;;;;;;6064306;23;20264;-81
2024/04/01 04:25:06;;;;;;;34.13;6.87;;;;;;;;;;6088667;23;20629;-81
2024/04/01 04:27:32;;;;;;;35.13;7.60;;;;;;;;;;6064229;23;20169;-82
2024/04/01 04:29:58;;;;;;;37.87;7.67;;;;;;;;;;6064545;23;20256;-81
2024/04/01 04:32:25;;;;;;;39.23;7.60;;;;;;;;;;6040565;23;20177;-81
2024/04/01 04:34:51;;;;;;;35.90;8.80;;;;;;;;;;6040649;23;20189;-81
2024/04/01 04:37:17;;;;;;;40.40;7.63;;;;;;;;;;6064496;23;20210;-82
2024/04/01 04:39:43;;;;;;;40.60;7.47;;;;;;;;;;6017015;23;20173;-81
2024/04/01 04:42:09;;;;;;;40.27;7.43;;;;;;;;;;6040635;23;20648;-81
2024/04/01 04:44:35;;;;;;;40.27;8.50;;;;;;;;;;6040789;23;20196;-81
2024/04/01 04:47:05;;;;;;;42.40;8.60;;;;;;;;;;6088289;23;20513;-81
2024/04/01 04:49:34;;;;;;;35.53;8.07;;;;;;;;;;6064517;23;20260;-81
2024/04/01 04:52:03;;;;;;;40.17;8.37;;;;;;;;;;6064474;23;20823;-81
2024/04/01 04:54:34;;;;;;;39.63;8.57;;;;;;;;;;6064336;23;20627;-81
2024/04/01 04:56:59;;;;;;;42.73;8.03;;;;;;;;;;6063843;23;20165;-81
2024/04/01 04:59:26;;;;;;;38.43;8.00;;;;;;;;;;6064165;23;20173;-81
2024/04/01 05:01:52;;;;;;;36.90;8.07;;;;;;;;;;6064176;23;20325;-82
2024/04/01 05:04:18;;;;;;;42.27;8.00;;;;;;;;;;6064370;23;20172;-82
2024/04/01 05:06:45;;;;;;;41.50;8.00;;;;;;;;;;6064394;23;20249;-81
2024/04/01 05:09:12;;;;;;;43.97;8.60;;;;;;;;;;6016923;23;20169;-82
2024/04/01 05:11:41;;;;;;;45.10;8.70;;;;;;;;;;6040443;23;20208;-82
2024/04/01 05:14:08;;;;;;;39.37;7.60;;;;;;;;;;6089723;23;20173;-82
2024/04/01 05:16:34;;;;;;;43.00;8.50;;;;;;;;;;6065999;23;20169;-82
2024/04/01 05:19:07;;;;;;;40.70;8.77;;;;;;;;;;6066466;23;20224;-82
2024/04/01 05:21:36;;;;;;;43.57;8.63;;;;;;;;;;6066060;23;20217;-81
2024/04/01 05:24:04;;;;;;;39.87;7.60;;;;;;;;;;6042338;23;20660;-82
2024/04/01 05:26:30;;;;;;;39.00;7.97;;;;;;;;;;6066150;23;20244;-82
2024/04/01 05:28:57;;;;;;;36.53;8.23;;;;;;;;;;6066079;23;20173;-82
2024/04/01 05:31:24;;;;;;;38.97;8.37;;;;;;;;;;6019311;23;20169;-81
2024/04/01 05:33:50;;;;;;;46.13;8.97;;;;;;;;;;6066607;23;20652;-82
2024/04/01 05:36:21;;;;;;;49.10;8.67;;;;;;;;;;6018750;23;20221;-82
2024/04/01 05:39:00;;;;;;;45.10;8.43;;;;;;;;;;6023387;23;20229;-82
2024/04/01 05:41:27;;;;;;;44.27;7.97;;;;;;;;;;6042792;23;20209;-82
2024/04/01 05:43:54;;;;;;;44.33;8.67;;;;;;;;;;5995514;23;20196;-82
2024/04/01 05:46:23;;;;;;;43.37;7.73;;;;;;;;;;6042578;23;20240;-82
2024/04/01 05:48:49;;;;;;;49.47;8.57;;;;;;;;;;5995397;23;20165;-81
2024/04/01 05:51:15;;;;;;;37.13;8.03;;;;;;;;;;6018215;23;20196;-82
2024/04/01 05:53:52;;;;;;;40.33;7.90;;;;;;;;;;6019098;23;20176;-82
2024/04/01 05:56:18;;;;;;;49.90;7.30;;;;;;;;;;6041651;23;20181;-82
2024/04/01 05:58:45;;;;;;;44.40;9.13;;;;;;;;;;6042095;23;20165;-82
2024/04/01 06:01:11;;;;;;;43.20;8.20;;;;;;;;;;6018226;23;20169;-82
2024/04/01 06:03:40;;;;;;;44.20;8.47;;;;;;;;;;6041771;23;20189;-82
2024/04/01 06:06:09;;;;;;;43.10;9.00;;;;;;;;;;6041930;23;20170;-82
2024/04/01 06:08:36;;;;;;;38.90;8.00;;;;;;;;;;6042094;23;20216;-82
2024/04/01 06:11:03;;;;;;;48.70;8.20;;;;;;;;;;6042174;23;20252;-81
2024/04/01 06:13:29;;;;;;;40.87;8.47;;;;;;;;;;6041510;23;20191;-81
2024/04/01 06:15:55;;;;;;;49.13;9.40;;;;;;;;;;6041660;23;20625;-82
2024/04/01 06:18:24;;;;;;;32.03;8.30;;;;;;;;;;6018168;23;20208;-81
2024/04/01 06:20:53;;;;;;;48.90;8.53;;;;;;;;;;6041324;23;20221;-82
2024/04/01 06:23:19;;;;;;;42.13;8.10;;;;;;;;;;6041240;23;20205;-81
2024/04/01 06:25:47;;;;;;;44.73;9.00;;;;;;;;;;5995095;23;20173;-82
2024/04/01 06:28:13;;;;;;;43.97;8.50;;;;;;;;;;6017873;23;20196;-81
2024/04/01 06:30:40;;;;;;;37.30;8.07;;;;;;;;;;6041600;23;20171;-82
2024/04/01 06:33:09;;;;;;;36.60;8.20;;;;;;;;;;5995285;23;20264;-81
2024/04/01 06:35:36;;;;;;;49.53;9.23;;;;;;;;;;6054983;23;20209;-81
2024/04/01 06:38:03;;;;;;;44.77;8.73;;;;;;;;;;6022554;23;20180;-82
2024/04/01 06:40:36;;;;;;;46.23;8.53;;;;;;;;;;6024355;23;20212;-82
2024/04/01 06:43:05;;;;;;;42.17;8.37;;;;;;;;;;6047372;23;20240;-83
2024/04/01 06:45:31;;;;;;;40.90;8.43;;;;;;;;;;6070172;23;20281;-82
2024/04/01 06:47:59;;;;;;;41.87;8.87;;;;;;;;;;6022995;23;20176;-81
2024/04/01 06:50:25;;;;;;;45.77;9.73;;;;;;;;;;6070473;23;20178;-81
2024/04/01 06:52:54;;;;;;;43.80;8.20;;;;;;;;;;6022436;23;20216;-82
2024/04/01 06:55:20;;;;;;;44.57;9.17;;;;;;;;;;6070414;23;20168;-81
2024/04/01 06:57:48;;;;;;;50.13;8.67;;;;;;;;;;6070199;23;20172;-82
2024/04/01 07:00:15;;;;;;;37.20;9.20;;;;;;;;;;6070152;23;20603;-82
2024/04/01 07:02:41;;;;;;;50.00;9.37;;;;;;;;;;6045815;23;20226;-82
2024/04/01 07:05:07;;;;;;;39.77;8.50;;;;;;;;;;6046123;23;20629;-82
2024/04/01 07:07:47;;;;;;;36.27;7.87;;;;;;;;;;6045352;23;20171;-82
2024/04/01 07:10:14;;;;;;;37.40;8.80;;;;;;;;;;6022785;23;20195;-82
2024/04/01 07:12:40;;;;;;;41.67;8.50;;;;;;;;;;6022567;23;20645;-81
2024/04/01 07:15:08;;;;;;;40.93;7.60;;;;;;;;;;6045921;23;20227;-82
2024/04/01 07:17:34;;;;;;;45.53;9.07;;;;;;;;;;6045391;23;20181;-82
2024/04/01 07:20:00;;;;;;;45.37;9.30;;;;;;;;;;6045937;23;20183;-83
2024/04/01 07:22:27;;;;;;;43.13;8.33;;;;;;;;;;6021840;23;20280;-83
2024/04/01 07:24:53;;;;;;;40.87;8.63;;;;;;;;;;6045758;23;20192;-82
2024/04/01 07:27:19;;;;;;;38.40;7.90;;;;;;;;;;6021846;23;20167;-81
2024/04/01 07:29:45;;;;;;;44.53;8.20;;;;;;;;;;6045136;23;20207;-82
2024/04/01 07:32:13;;;;;;;36.63;7.93;;;;;;;;;;6022125;23;20526;-83
2024/04/01 07:34:38;;;;;;;40.87;7.93;;;;;;;;;;6044971;23;20199;-83
2024/04/01 07:37:05;;;;;;;39.40;8.20;;;;;;;;;;6045052;23;20177;-82
2024/04/01 07:39:31;;;;;;;38.10;7.70;;;;;;;;;;6021589;23;20251;-82
2024/04/01 07:41:57;;;;;;;44.40;8.73;;;;;;;;;;6045279;23;20693;-83
2024/04/01 07:44:25;;;;;;;42.47;8.10;;;;;;;;;;6021578;23;20178;-82
2024/04/01 07:46:51;;;;;;;47.63;8.67;;;;;;;;;;6045800;23;20190;-82
2024/04/01 07:49:17;;;;;;;46.67;8.60;;;;;;;;;;6021446;23;20635;-82
2024/04/01 07:51:43;;;;;;;40.97;7.80;;;;;;;;;;6045375;23;20179;-82
2024/04/01 07:54:11;;;;;;;49.90;8.97;;;;;;;;;;6021256;23;20167;-82
2024/04/01 07:56:38;;;;;;;38.50;9.30;;;;;;;;;;6020273;23;20315;-82
2024/04/01 07:59:05;;;;;;;39.23;8.73;;;;;;;;;;6066863;23;20254;-83
2024/04/01 08:01:31;;;;;;;45.23;9.63;;;;;;;;;;6066961;23;20203;-82
2024/04/01 08:04:00;;;;;;;46.83;8.97;;;;;;;;;;6043632;23;20630;-82
2024/04/01 08:06:26;;;;;;;41.33;8.77;;;;;;;;;;6021086;23;20669;-83
2024/04/01 08:08:53;;;;;;;47.60;9.10;;;;;;;;;;6021308;23;20175;-82
2024/04/01 08:11:19;;;;;;;36.03;8.53;;;;;;;;;;6021734;23;20205;-82
2024/04/01 08:13:45;;;;;;;39.67;8.60;;;;;;;;;;6020777;23;20212;-82
2024/04/01 08:16:11;;;;;;;39.00;8.73;;;;;;;;;;6045384;23;20174;-83
2024/04/01 08:18:40;;;;;;;38.93;8.80;;;;;;;;;;6044907;23;20191;-84
2024/04/01 08:21:06;;;;;;;39.47;8.60;;;;;;;;;;6021998;23;20171;-82
2024/04/01 08:23:32;;;;;;;43.97;8.10;;;;;;;;;;6044729;23;20255;-83
2024/04/01 08:25:58;;;;;;;42.17;8.87;;;;;;;;;;6021331;23;20182;-82
2024/04/01 08:28:24;;;;;;;41.77;8.53;;;;;;;;;;6044913;23;20199;-82
2024/04/01 08:30:50;;;;;;;39.70;8.73;;;;;;;;;;6021295;23;20539;-83
2024/04/01 08:33:17;;;;;;;38.37;7.77;;;;;;;;;;6021290;23;20180;-83
2024/04/01 08:35:43;;;;;;;40.17;8.33;;;;;;;;;;6015164;23;20214;-84
2024/04/01 08:38:09;;;;;;;36.55;8.27;;;;;;;;;;6038608;23;20183;-82
2024/04/01 08:40:42;;;;;;;36.27;8.47;;;;;;;;;;6016492;23;20282;-82
2024/04/01 08:43:10;;;;;;;36.13;8.33;;;;;;;;;;6039454;23;20587;-85
2024/04/01 08:45:38;;;;;;;38.00;8.23;;;;;;;;;;6040333;23;20691;-83
2024/04/01 08:48:12;;;;;;;43.92;9.00;;;;;;;;;;6040561;23;20185;-84
2024/04/01 08:50:44;;;;;;;39.85;8.65;;;;;;;;;;6015958;23;20176;-83
2024/04/01 08:53:20;;;;;;;38.20;8.00;;;;;;;;;;6039404;23;20176;-83
2024/04/01 08:55:47;;;;;;;40.97;8.57;;;;;;;;;;6040509;23;20243;-83
2024/04/01 08:58:13;;;;;;;48.00;9.15;;;;;;;;;;6063775;23;20646;-82
2024/04/01 09:00:42;;;;;;;45.83;8.38;;;;;;;;;;6063073;23;20965;-82
2024/04/01 09:03:08;;;;;;;40.45;8.55;;;;;;;;;;6039892;23;20280;-81
2024/04/01 09:05:35;;;;;;;38.38;8.52;;;;;;;;;;6063308;23;20193;-81
2024/04/01 09:08:01;;;;;;;42.10;8.05;;;;;;;;;;6038615;23;20175;-83
2024/04/01 09:10:27;;;;;;;38.45;8.98;;;;;;;;;;6039737;23;20174;-81
2024/04/01 09:12:56;;;;;;;46.70;8.52;;;;;;;;;;6039990;23;20229;-82
2024/04/01 09:15:24;;;;;;;32.97;6.78;;;;;;;;;;6063520;23;20165;-82
2024/04/01 09:17:53;;;;;;;37.03;8.43;;;;;;;;;;6063522;23;20249;-81
2024/04/01 09:20:23;;;;;;;46.38;7.57;;;;;;;;;;6040194;23;20250;-81
2024/04/01 09:22:49;;;;;;;39.75;8.68;;;;;;;;;;6064126;23;20221;-80
2024/04/01 09:25:16;;;;;;;40.08;8.25;;;;;;;;;;6039722;23;20180;-80
2024/04/01 09:27:45;;;;;;;28.02;7.20;;;;;;;;;;6016345;23;20181;-80
2024/04/01 09:30:11;;;;;;;37.58;7.57;;;;;;;;;;6039320;23;20181;-81
2024/04/01 09:32:37;;;;;;;38.50;8.93;;;;;;;;;;6015748;23;20810;-81
2024/04/01 09:35:04;;;;;;;42.42;8.57;;;;;;;;;;6063557;23;20207;-81
2024/04/01 09:37:29;;;;;;;37.10;7.35;;;;;;;;;;6039618;23;20168;-81
2024/04/01 09:39:57;;;;;;;36.25;7.70;;;;;;;;;;6015942;23;20769;-80
2024/04/01 09:42:24;;;;;;;35.80;7.32;;;;;;;;;;6039480;23;20259;-81
2024/04/01 09:44:53;;;;;;;38.75;7.10;;;;;;;;;;6063314;23;20258;-79
2024/04/01 09:47:20;;;;;;;36.33;7.53;;;;;;;;;;6039623;23;20173;-80
2024/04/01 09:49:46;;;;;;;36.30;7.53;;;;;;;;;;6063191;23;20177;-79
2024/04/01 09:52:12;;;;;;;39.05;7.95;;;;;;;;;;6014979;23;20496;-80
2024/04/01 09:54:39;;;;;;;34.17;8.43;;;;;;;;;;6062948;23;20198;-80
2024/04/01 09:57:11;;;;;;;51.75;20.50;;;;;;;;;;6038979;23;20211;-81
2024/04/01 09:59:40;;;;;;;41.72;14.05;;;;;;;;;;6036627;23;20173;-80
2024/04/01 10:02:36;;;;;;;48.78;18.42;;;;;;;;;;6061763;23;20214;-80
2024/04/01 10:05:23;;;;;;;49.50;16.35;;;;;;;;;;6026595;23;20180;-80
2024/04/01 10:08:04;;;;;;;41.83;8.70;;;;;;;;;;6019876;23;20183;-80
2024/04/01 10:10:49;;;;;;;37.88;7.95;;;;;;;;;;6061865;23;20168;-79
2024/04/01 10:13:19;;;;;;;42.58;7.65;;;;;;;;;;6059841;23;20235;-79
2024/04/01 10:16:04;;;;;;;37.22;7.20;;;;;;;;;;6061624;23;20171;-79
2024/04/01 10:18:51;;;;;;;37.83;7.82;;;;;;;;;;6038212;23;20250;-79
2024/04/01 10:21:36;;;;;;;41.28;7.85;;;;;;;;;;6038546;23;20260;-78
2024/04/01 10:24:03;;;;;;;35.03;7.00;;;;;;;;;;6062195;23;20180;-79
2024/04/01 10:26:44;;;;;;;34.80;7.07;;;;;;;;;;6061788;23;20165;-79
2024/04/01 10:29:23;;;;;;;41.30;8.25;;;;;;;;;;6036029;23;20692;-79
2024/04/01 10:32:02;;;;;;;40.60;7.65;;;;;;;;;;6038636;23;20551;-78
2024/04/01 10:34:28;;;;;;;33.53;8.30;;;;;;;;;;6062363;23;20180;-80
2024/04/01 10:37:04;;;;;;;38.08;7.60;;;;;;;;;;6042635;23;20172;-80
2024/04/01 10:40:02;;;;;;;33.33;7.53;;;;;;;;;;6066698;23;20164;-78
2024/04/01 10:42:31;;;;;;;41.08;8.35;;;;;;;;;;6041633;23;20267;-79
2024/04/01 10:45:02;;;;;;;36.22;7.32;;;;;;;;;;6066330;23;20219;-79
2024/04/01 10:47:39;;;;;;;40.67;7.55;;;;;;;;;;6066456;23;20192;-81
2024/04/01 10:50:21;;;;;;;36.00;7.53;;;;;;;;;;6066451;23;20155;-80
2024/04/01 10:53:15;;;;;;;37.22;8.07;;;;;;;;;;6045472;23;20171;-81
2024/04/01 10:55:54;;;;;;;34.55;6.95;;;;;;;;;;6042757;23;20923;-79
2024/04/01 10:58:24;;;;;;;44.75;8.27;;;;;;;;;;6065996;23;20361;-79
2024/04/01 11:00:53;;;;;;;39.85;8.45;;;;;;;;;;6042534;23;20172;-80
2024/04/01 11:03:34;;;;;;;49.00;8.48;;;;;;;;;;6066182;23;20184;-79
2024/04/01 11:06:00;;;;;;;39.13;7.70;;;;;;;;;;6066047;23;20177;-80
2024/04/01 11:08:33;;;;;;;40.20;8.40;;;;;;;;;;6066322;23;20247;-80
2024/04/01 11:11:17;;;;;;;43.85;8.25;;;;;;;;;;6066240;23;20625;-80
2024/04/01 11:13:48;;;;;;;39.08;7.30;;;;;;;;;;6067283;23;20723;-79
2024/04/01 11:16:20;;;;;;;44.88;8.27;;;;;;;;;;6044069;23;20168;-79
2024/04/01 11:18:49;;;;;;;44.58;8.50;;;;;;;;;;6043592;23;20160;-78
2024/04/01 11:21:21;;;;;;;50.22;8.75;;;;;;;;;;6066058;23;20173;-79
2024/04/01 11:23:57;;;;;;;41.38;8.13;;;;;;;;;;6066216;23;20183;-80
2024/04/01 11:26:38;;;;;;;41.95;8.48;;;;;;;;;;6042043;23;20207;-79
2024/04/01 11:29:17;;;;;;;38.75;8.77;;;;;;;;;;6065856;23;20219;-80
2024/04/01 11:31:52;;;;;;;39.03;8.07;;;;;;;;;;6065890;23;20176;-78
2024/04/01 11:34:24;;;;;;;42.50;8.55;;;;;;;;;;6042668;23;20176;-79
2024/04/01 11:37:12;;;;;;;37.70;8.63;;;;;;;;;;6061300;23;20205;-80
2024/04/01 11:39:40;;;;;;;41.58;8.23;;;;;;;;;;6036893;23;20228;-78
2024/04/01 11:42:06;;;;;;;38.35;8.63;;;;;;;;;;6036935;23;20169;-78
2024/04/01 11:44:33;;;;;;;45.58;9.13;;;;;;;;;;6084412;23;20188;-80
2024/04/01 11:47:00;;;;;;;42.67;9.32;;;;;;;;;;6060543;23;20401;-78
2024/04/01 11:49:37;;;;;;;46.42;9.60;;;;;;;;;;6034912;23;20260;-79
2024/04/01 11:52:10;;;;;;;39.35;8.48;;;;;;;;;;6012646;23;20245;-81
2024/04/01 11:54:38;;;;;;;41.33;8.52;;;;;;;;;;6037380;23;20177;-79
2024/04/01 11:57:25;;;;;;;46.33;9.55;;;;;;;;;;6061290;23;20176;-79
2024/04/01 12:00:02;;;;;;;47.55;9.27;;;;;;;;;;6037054;23;20169;-79
2024/04/01 12:02:35;;;;;;;43.78;9.75;;;;;;;;;;6061133;23;20531;-79
2024/04/01 12:05:03;;;;;;;48.15;9.75;;;;;;;;;;6061335;23;20177;-79
2024/04/01 12:07:32;;;;;;;41.78;9.35;;;;;;;;;;6037364;23;20169;-79
2024/04/01 12:10:02;;;;;;;48.95;10.10;;;;;;;;;;6037233;23;20197;-79
2024/04/01 12:12:29;;;;;;;47.95;9.48;;;;;;;;;;6061597;23;20216;-79
2024/04/01 12:14:54;;;;;;;47.92;9.50;;;;;;;;;;6060861;23;20244;-79
2024/04/01 12:17:21;;;;;;;43.00;9.75;;;;;;;;;;6061027;23;20609;-79
2024/04/01 12:19:47;;;;;;;48.00;10.07;;;;;;;;;;6013116;23;20228;-79
2024/04/01 12:22:13;;;;;;;45.97;9.95;;;;;;;;;;6061140;23;20189;-79
2024/04/01 12:24:44;;;;;;;49.47;9.90;;;;;;;;;;6060986;23;20786;-78
2024/04/01 12:27:12;;;;;;;49.13;10.13;;;;;;;;;;6037681;23;20169;-79
2024/04/01 12:29:40;;;;;;;49.08;9.63;;;;;;;;;;6013619;23;20173;-79
2024/04/01 12:32:07;;;;;;;49.28;10.57;;;;;;;;;;6060144;23;20181;-78
2024/04/01 12:34:36;;;;;;;53.97;10.65;;;;;;;;;;6014454;23;20517;-78
2024/04/01 12:37:03;;;;;;;54.00;11.57;;;;;;;;;;6065862;23;20176;-79
2024/04/01 12:39:30;;;;;;;51.88;10.75;;;;;;;;;;6041894;23;20176;-78
2024/04/01 12:41:59;;;;;;;48.08;10.80;;;;;;;;;;6066070;23;20818;-81
2024/04/01 12:44:25;;;;;;;54.20;11.32;;;;;;;;;;6065913;23;20166;-78
2024/04/01 12:46:52;;;;;;;58.05;11.02;;;;;;;;;;6065554;23;20180;-79
2024/04/01 12:49:20;;;;;;;52.47;11.30;;;;;;;;;;6042062;23;20214;-79
2024/04/01 12:51:48;;;;;;;57.53;11.80;;;;;;;;;;6041604;23;20201;-79
2024/04/01 12:54:14;;;;;;;56.13;12.30;;;;;;;;;;6041779;23;20172;-79
2024/04/01 12:56:40;;;;;;;57.65;11.13;;;;;;;;;;6065846;23;20179;-81
2024/04/01 12:59:22;;;;;;;61.20;12.20;;;;;;;;;;6065991;23;20643;-80
2024/04/01 13:02:01;;;;;;;50.65;11.95;;;;;;;;;;6065603;23;20165;-80
2024/04/01 13:04:42;;;;;;;48.35;12.32;;;;;;;;;;6066479;23;20153;-80
2024/04/01 13:07:14;;;;;;;66.30;13.70;;;;;;;;;;6018515;23;20196;-78
2024/04/01 13:10:03;;;;;;;58.67;12.93;;;;;;;;;;6063643;23;20484;-80
2024/04/01 13:12:32;;;;;;;62.22;13.05;;;;;;;;;;6063604;23;20671;-79
2024/04/01 13:15:10;;;;;;;51.72;12.90;;;;;;;;;;6064884;23;20149;-79
2024/04/01 13:17:57;;;;;;;60.33;12.82;;;;;;;;;;6065312;23;20179;-79
2024/04/01 13:20:35;;;;;;;59.47;13.93;;;;;;;;;;6065550;23;20175;-80
2024/04/01 13:23:08;;;;;;;59.22;13.80;;;;;;;;;;6065214;23;20192;-77
2024/04/01 13:25:44;;;;;;;59.85;13.10;;;;;;;;;;6065978;23;20173;-78
2024/04/01 13:28:23;;;;;;;53.70;13.25;;;;;;;;;;6042870;23;20160;-78
2024/04/01 13:31:07;;;;;;;59.53;13.75;;;;;;;;;;6041329;23;20168;-80
2024/04/01 13:33:44;;;;;;;59.00;13.38;;;;;;;;;;6066118;23;20172;-79
2024/04/01 13:36:26;;;;;;;57.72;14.07;;;;;;;;;;6042869;23;20211;-79
2024/04/01 13:39:13;;;;;;;58.15;14.13;;;;;;;;;;6067601;23;20160;-79
2024/04/01 13:41:41;;;;;;;56.47;13.27;;;;;;;;;;6068322;23;20161;-79
2024/04/01 13:44:14;;;;;;;74.40;14.95;;;;;;;;;;6043119;23;20219;-79
2024/04/01 13:46:43;;;;;;;57.33;13.73;;;;;;;;;;6067673;23;20289;-78
2024/04/01 13:49:12;;;;;;;57.33;13.50;;;;;;;;;;6043000;23;20352;-79
2024/04/01 13:51:38;;;;;;;58.60;14.23;;;;;;;;;;6067691;23;20247;-80
2024/04/01 13:54:30;;;;;;;64.63;14.23;;;;;;;;;;6067130;23;20172;-80
2024/04/01 13:57:15;;;;;;;60.05;14.10;;;;;;;;;;6042511;23;20183;-79
2024/04/01 13:59:46;;;;;;;54.53;13.88;;;;;;;;;;6043537;23;20191;-79
2024/04/01 14:02:32;;;;;;;60.35;14.80;;;;;;;;;;6043857;23;20169;-80
2024/04/01 14:05:04;;;;;;;58.13;14.18;;;;;;;;;;6067787;23;20244;-79
2024/04/01 14:07:51;;;;;;;66.40;14.85;;;;;;;;;;6044245;23;20700;-80
2024/04/01 14:10:24;;;;;;;61.60;14.55;;;;;;;;;;6042910;23;20167;-80
2024/04/01 14:13:00;;;;;;;60.33;14.27;;;;;;;;;;6042856;23;20161;-80
2024/04/01 14:15:35;;;;;;;67.88;15.50;;;;;;;;;;6041487;23;20153;-79
2024/04/01 14:18:37;;;;;;;58.25;14.00;;;;;;;;;;6042519;23;20176;-78
2024/04/01 14:21:07;;;;;;;66.40;14.90;;;;;;;;;;6044894;23;20232;-81
2024/04/01 14:23:41;;;;;;;43.03;11.32;;;;;;;;;;6067915;23;20277;-79
2024/04/01 14:26:11;;;;;;;58.22;14.10;;;;;;;;;;6069000;23;20172;-78
2024/04/01 14:28:40;;;;;;;53.90;12.05;;;;;;;;;;6045232;23;20637;-78
2024/04/01 14:31:13;;;;;;;64.53;13.93;;;;;;;;;;6045925;23;20699;-78
2024/04/01 14:33:47;;;;;;;62.00;14.52;;;;;;;;;;6069110;23;20260;-79
2024/04/01 14:36:13;;;;;;;62.03;13.77;;;;;;;;;;6068489;23;20208;-80
2024/04/01 14:38:39;;;;;;;68.22;15.13;;;;;;;;;;6043659;23;20169;-79
2024/04/01 14:41:05;;;;;;;62.78;13.90;;;;;;;;;;6067865;23;20682;-78
2024/04/01 14:43:31;;;;;;;65.78;14.68;;;;;;;;;;6068778;23;20200;-79